Time;durP1;ratioP1;P1;durP2;ratioP2;P2;SDS_P1;SDS_P2;PMS_P1;PMS_P2;Temp;Humidity;BMP_temperature;BMP_pressure;BME280_temperature;BME280_humidity;BME280_pressure;Samples;Min_cycle;Max_cycle;Signal;HPM_P1;HPM_P2
2022/01/22 00:02:02;;;;;;;21.23;13.05;;;3.90;77.30;;;;;;5050830;28;20025;-74
2022/01/22 00:04:28;;;;;;;22.00;12.10;;;3.80;77.30;;;;;;5050978;28;20036;-74
2022/01/22 00:06:55;;;;;;;20.33;12.65;;;3.70;77.50;;;;;;5037184;28;20042;-74
2022/01/22 00:09:25;;;;;;;20.50;13.43;;;3.80;77.50;;;;;;5037340;28;20029;-74
2022/01/22 00:11:53;;;;;;;25.90;13.88;;;3.70;77.50;;;;;;5037139;28;20055;-74
2022/01/22 00:14:25;;;;;;;18.75;13.23;;;3.70;77.40;;;;;;5057097;28;20033;-74
2022/01/22 00:17:00;;;;;;;24.25;13.25;;;3.70;77.40;;;;;;5056949;28;20033;-73
2022/01/22 00:19:26;;;;;;;19.08;13.45;;;3.60;77.50;;;;;;5046580;28;20056;-73
2022/01/22 00:21:53;;;;;;;24.83;13.38;;;3.60;77.50;;;;;;5089175;28;20025;-74
2022/01/22 00:24:19;;;;;;;17.58;12.65;;;3.50;77.60;;;;;;5056616;28;20021;-74
2022/01/22 00:26:47;;;;;;;20.10;13.38;;;3.50;77.60;;;;;;5039575;28;20029;-74
2022/01/22 00:29:13;;;;;;;14.68;11.55;;;3.50;77.50;;;;;;5036920;28;20025;-74
2022/01/22 00:31:41;;;;;;;19.75;12.40;;;3.50;77.50;;;;;;5036577;28;20044;-73
2022/01/22 00:34:07;;;;;;;21.85;12.20;;;3.40;77.70;;;;;;5036652;28;20047;-74
2022/01/22 00:36:33;;;;;;;19.35;11.50;;;3.40;77.70;;;;;;5036847;28;20029;-73
2022/01/22 00:38:59;;;;;;;16.77;11.48;;;3.40;77.70;;;;;;5035251;28;20032;-74
2022/01/22 00:41:25;;;;;;;15.45;11.40;;;3.30;77.50;;;;;;5036580;28;20029;-73
2022/01/22 00:43:51;;;;;;;19.52;12.25;;;3.20;77.70;;;;;;5040461;28;20029;-74
2022/01/22 00:46:17;;;;;;;18.60;11.20;;;3.20;78.10;;;;;;5035212;28;20025;-74
2022/01/22 00:48:43;;;;;;;14.77;11.43;;;3.00;78.40;;;;;;5036537;28;20029;-74
2022/01/22 00:51:09;;;;;;;18.30;11.23;;;3.00;78.60;;;;;;5048220;28;20580;-74
2022/01/22 00:53:34;;;;;;;17.35;11.55;;;3.00;78.50;;;;;;5056264;28;20035;-74
2022/01/22 00:56:00;;;;;;;17.50;9.80;;;3.00;78.40;;;;;;5054585;28;20066;-74
2022/01/22 00:58:26;;;;;;;17.35;10.82;;;3.00;78.40;;;;;;5036263;28;20033;-74
2022/01/22 01:00:51;;;;;;;14.00;9.60;;;3.10;78.20;;;;;;5044386;28;20561;-74
2022/01/22 01:03:17;;;;;;;11.45;9.82;;;3.10;78.00;;;;;;5075935;28;20017;-74
2022/01/22 01:05:43;;;;;;;15.95;9.30;;;3.00;78.00;;;;;;5040044;28;20431;-74
2022/01/22 01:08:08;;;;;;;12.07;8.38;;;3.00;77.90;;;;;;5036297;28;20041;-74
2022/01/22 01:10:34;;;;;;;14.68;9.40;;;3.00;77.90;;;;;;5047917;28;20503;-73
2022/01/22 01:13:00;;;;;;;14.02;9.02;;;3.00;77.80;;;;;;5055970;28;20123;-74
2022/01/22 01:15:44;;;;;;;16.83;9.70;;;3.00;77.60;;;;;;5055955;28;20059;-73
2022/01/22 01:34:11;;;;;;;15.90;11.40;;;2.90;77.50;;;;;;5035610;28;20079;-74
2022/01/22 01:36:38;;;;;;;20.92;11.50;;;2.80;77.50;;;;;;5034622;28;20087;-73
2022/01/22 01:39:08;;;;;;;19.15;11.57;;;2.70;78.30;;;;;;5034047;28;20037;-73
2022/01/22 01:41:44;;;;;;;21.77;11.45;;;2.70;78.60;;;;;;5035132;28;20029;-74
2022/01/22 01:44:10;;;;;;;16.58;10.25;;;2.70;78.70;;;;;;5055372;28;20025;-73
2022/01/22 01:46:43;;;;;;;19.75;10.80;;;2.70;78.60;;;;;;5055616;28;20051;-73
2022/01/22 01:49:09;;;;;;;13.25;9.73;;;2.60;78.90;;;;;;5043249;28;20033;-74
2022/01/22 01:51:35;;;;;;;14.88;9.88;;;2.60;79.10;;;;;;5035514;28;20026;-74
2022/01/22 01:54:23;;;;;;;13.48;9.05;;;2.50;79.20;;;;;;5034048;28;20090;-74
2022/01/22 01:59:30;;;;;;;13.45;9.82;;;2.30;80.10;;;;;;5038782;28;20063;-73
2022/01/22 02:01:56;;;;;;;14.90;9.45;;;2.40;80.30;;;;;;5055177;28;20025;-73
2022/01/22 02:04:22;;;;;;;11.35;8.52;;;2.50;79.80;;;;;;5045038;28;20031;-74
2022/01/22 02:06:47;;;;;;;15.82;10.02;;;2.60;79.60;;;;;;5051432;28;20103;-73
2022/01/22 02:09:13;;;;;;;13.85;9.20;;;2.70;79.50;;;;;;5049477;28;20038;-74
2022/01/22 02:11:43;;;;;;;13.80;9.23;;;2.60;79.30;;;;;;5035204;28;20044;-73
2022/01/22 02:24:54;;;;;;;12.73;8.57;;;2.60;80.20;;;;;;5042308;28;20031;-74
2022/01/22 02:27:20;;;;;;;14.35;9.13;;;2.50;80.20;;;;;;5048800;28;20083;-73
2022/01/22 02:29:46;;;;;;;14.02;9.02;;;2.70;80.30;;;;;;5033694;28;20029;-74
2022/01/22 02:35:22;;;;;;;12.63;8.40;;;2.70;80.10;;;;;;5034567;28;20087;-73
2022/01/22 02:37:55;;;;;;;9.80;7.28;;;2.70;80.00;;;;;;5034945;28;20037;-73
2022/01/22 02:40:26;;;;;;;11.85;7.57;;;2.80;80.20;;;;;;5035250;28;20085;-74
2022/01/22 02:42:52;;;;;;;13.63;8.20;;;2.90;79.80;;;;;;5049483;28;20369;-73
2022/01/22 02:45:21;;;;;;;15.90;8.75;;;3.00;79.80;;;;;;5058809;28;20048;-74
2022/01/22 02:47:46;;;;;;;11.00;7.82;;;3.10;79.70;;;;;;5057464;28;20013;-74
2022/01/22 02:50:13;;;;;;;12.82;8.70;;;3.10;79.20;;;;;;5058557;28;20383;-73
2022/01/22 02:52:39;;;;;;;15.48;7.60;;;3.20;79.60;;;;;;5058455;28;20402;-74
2022/01/22 02:55:07;;;;;;;11.27;7.93;;;3.10;79.30;;;;;;5039193;28;20026;-74
2022/01/22 02:57:34;;;;;;;11.35;7.47;;;3.20;79.70;;;;;;5038503;28;20199;-73
2022/01/22 03:00:01;;;;;;;13.35;7.60;;;3.20;79.50;;;;;;5038778;28;20418;-73
2022/01/22 03:02:27;;;;;;;10.70;6.78;;;3.20;79.40;;;;;;5038490;28;20521;-74
2022/01/22 03:04:53;;;;;;;11.52;7.38;;;3.20;79.50;;;;;;5049590;28;20028;-73
2022/01/22 03:07:19;;;;;;;9.52;7.10;;;3.40;79.30;;;;;;5038457;28;20125;-73
2022/01/22 03:09:47;;;;;;;11.23;7.05;;;3.50;78.90;;;;;;5038193;28;20033;-74
2022/01/22 03:27:45;;;;;;;12.68;6.13;;;3.70;78.60;;;;;;5056027;28;20032;-73
2022/01/22 03:30:11;;;;;;;10.35;6.68;;;3.60;78.90;;;;;;5057058;28;20021;-74
2022/01/22 03:32:43;;;;;;;13.38;7.13;;;3.70;78.80;;;;;;5037961;28;20033;-73
2022/01/22 03:35:26;;;;;;;7.05;5.60;;;3.80;78.60;;;;;;5036334;28;20055;-73
2022/01/22 03:37:55;;;;;;;12.35;6.53;;;3.80;78.50;;;;;;5053271;28;20036;-73
2022/01/22 03:40:23;;;;;;;12.40;6.57;;;3.90;78.50;;;;;;5052594;28;20064;-73
2022/01/22 03:42:51;;;;;;;9.82;6.38;;;4.00;78.30;;;;;;5048078;28;20260;-74
2022/01/22 03:45:18;;;;;;;11.73;6.43;;;4.00;78.20;;;;;;5057570;28;20618;-74
2022/01/22 03:47:43;;;;;;;11.25;6.25;;;3.90;78.00;;;;;;5057653;28;20104;-73
2022/01/22 03:50:11;;;;;;;9.35;6.45;;;4.00;78.20;;;;;;5038295;28;20113;-73
2022/01/22 03:52:37;;;;;;;8.60;6.45;;;4.00;78.10;;;;;;5036786;28;20155;-73
2022/01/22 03:55:08;;;;;;;9.63;5.88;;;4.00;78.20;;;;;;5036341;28;20054;-73
2022/01/22 03:57:34;;;;;;;7.65;5.93;;;4.00;78.10;;;;;;5036522;28;20025;-73
2022/01/22 04:00:01;;;;;;;14.00;6.90;;;4.00;78.10;;;;;;5037565;28;20037;-73
2022/01/22 04:05:02;;;;;;;7.72;5.90;;;4.10;78.20;;;;;;5037414;28;20080;-73
2022/01/22 04:09:58;;;;;;;8.60;5.80;;;4.10;78.10;;;;;;5037639;28;20042;-73
2022/01/22 04:12:51;;;;;;;9.65;6.47;;;4.20;78.10;;;;;;5035819;28;20045;-73
2022/01/22 04:15:13;;;;;;;11.73;6.60;;;4.20;78.20;;;;;;5036999;28;20041;-73
2022/01/22 04:25:50;;;;;;;9.65;5.90;;;4.20;78.00;;;;;;5037156;28;20099;-73
2022/01/22 04:28:16;;;;;;;8.23;6.05;;;4.20;77.70;;;;;;5037000;28;20054;-73
2022/01/22 04:30:41;;;;;;;10.13;6.65;;;4.20;78.10;;;;;;5036909;28;20030;-73
2022/01/22 04:33:07;;;;;;;9.93;7.03;;;4.20;78.00;;;;;;5036792;28;20029;-73
2022/01/22 04:35:33;;;;;;;11.65;6.28;;;4.20;77.90;;;;;;5036595;28;20083;-74
2022/01/22 04:37:59;;;;;;;11.63;6.43;;;4.20;78.30;;;;;;5068953;28;20037;-74
2022/01/22 04:40:24;;;;;;;11.60;6.95;;;4.30;78.50;;;;;;5036504;28;20033;-73
2022/01/22 04:42:50;;;;;;;9.60;6.18;;;4.30;78.10;;;;;;5047169;28;20032;-74
2022/01/22 04:45:27;;;;;;;9.80;6.20;;;4.30;78.10;;;;;;5056199;28;20535;-74
2022/01/22 04:55:37;;;;;;;7.75;5.97;;;4.30;78.40;;;;;;5056439;28;20039;-73
2022/01/22 04:58:03;;;;;;;9.65;5.40;;;4.30;78.80;;;;;;5056139;28;20029;-71
2022/01/22 05:00:34;;;;;;;11.18;6.25;;;4.30;78.40;;;;;;5050322;28;20095;-72
2022/01/22 05:03:00;;;;;;;;;;;4.30;78.30;;;;;;5036904;28;20053;-71
2022/01/22 05:05:26;;;;;;;8.90;5.22;;;4.40;78.30;;;;;;5036121;28;19927;-72
2022/01/22 05:07:52;;;;;;;11.13;5.88;;;4.50;78.10;;;;;;5034974;28;20466;-71
2022/01/22 05:10:18;;;;;;;14.80;6.20;;;4.40;77.80;;;;;;5035972;28;20395;-71
2022/01/22 05:12:44;;;;;;;10.35;6.10;;;4.30;78.50;;;;;;5051413;28;20033;-73
2022/01/22 05:15:10;;;;;;;11.32;6.55;;;4.30;78.70;;;;;;5068191;28;20021;-71
2022/01/22 05:17:39;;;;;;;11.05;5.72;;;4.20;78.30;;;;;;5035741;28;20045;-71
2022/01/22 05:20:15;;;;;;;9.10;5.47;;;4.30;78.40;;;;;;5041769;28;20059;-71
2022/01/22 05:25:20;;;;;;;8.15;5.60;;;4.30;77.90;;;;;;5036240;28;20029;-71
2022/01/22 05:33:27;;;;;;;10.75;6.88;;;4.40;78.30;;;;;;5054626;28;20039;-74
2022/01/22 05:38:33;;;;;;;15.20;7.53;;;4.50;78.40;;;;;;5035651;28;20056;-71
2022/01/22 05:40:59;;;;;;;17.20;8.18;;;4.50;78.40;;;;;;5035563;28;20026;-71
2022/01/22 05:43:25;;;;;;;13.25;6.97;;;4.60;78.40;;;;;;5050769;28;20036;-72
2022/01/22 05:45:50;;;;;;;12.98;6.60;;;4.60;78.50;;;;;;5054372;28;20437;-73
2022/01/22 05:48:17;;;;;;;11.52;6.18;;;4.60;78.60;;;;;;5055484;28;20086;-72
2022/01/22 06:01:16;;;;;;;15.45;6.50;;;4.70;78.40;;;;;;5035288;28;20048;-72
2022/01/22 06:03:43;;;;;;;11.73;5.55;;;4.80;78.40;;;;;;5045747;28;20032;-71
2022/01/22 06:06:08;;;;;;;12.80;5.90;;;4.80;78.70;;;;;;5055064;28;20021;-71
2022/01/22 06:08:40;;;;;;;8.13;5.45;;;4.80;78.70;;;;;;5036734;28;20049;-72
2022/01/22 06:11:10;;;;;;;8.23;4.70;;;4.80;78.70;;;;;;5038639;28;20081;-72
2022/01/22 06:13:46;;;;;;;14.27;5.88;;;4.90;79.20;;;;;;5054955;28;20843;-71
2022/01/22 06:16:14;;;;;;;11.55;5.25;;;5.00;78.60;;;;;;5039100;28;20084;-72
2022/01/22 06:18:40;;;;;;;9.75;5.78;;;4.90;78.80;;;;;;5035359;28;20104;-73
2022/01/22 06:21:08;;;;;;;9.93;5.60;;;4.90;78.90;;;;;;5051135;28;20053;-72
2022/01/22 06:23:35;;;;;;;8.18;5.63;;;4.90;79.00;;;;;;5053597;28;20025;-72
2022/01/22 06:26:01;;;;;;;16.67;6.53;;;4.90;78.90;;;;;;5055045;28;20099;-72
2022/01/22 07:36:25;;;;;;;24.58;13.13;;;2.80;85.70;;;;;;5062342;28;20948;-75
2022/01/22 07:38:50;;;;;;;21.80;13.50;;;2.90;85.50;;;;;;5058663;28;20141;-74
2022/01/22 07:41:16;;;;;;;20.20;12.73;;;3.30;85.00;;;;;;5071652;28;20425;-74
2022/01/22 07:46:17;;;;;;;15.23;10.68;;;3.90;83.10;;;;;;5214794;22;20053;-73
2022/01/22 07:48:43;;;;;;;15.80;11.13;;;4.20;82.20;;;;;;5062678;28;20465;-73
2022/01/22 07:51:09;;;;;;;18.50;11.70;;;4.40;81.50;;;;;;5069009;28;20078;-73
2022/01/22 07:53:35;;;;;;;15.68;11.27;;;4.50;81.00;;;;;;5065942;28;20029;-72
2022/01/22 07:56:00;;;;;;;17.65;11.52;;;4.60;80.60;;;;;;5050808;28;20040;-73
2022/01/22 07:58:26;;;;;;;16.83;11.43;;;4.70;80.10;;;;;;5051836;28;20100;-72
2022/01/22 08:00:52;;;;;;;13.88;9.55;;;4.80;79.80;;;;;;5051825;28;20032;-72
2022/01/22 08:03:17;;;;;;;17.73;9.20;;;4.90;79.50;;;;;;5067315;28;20486;-73
2022/01/22 08:05:44;;;;;;;17.15;12.27;;;4.90;78.90;;;;;;5066180;28;20033;-72
2022/01/22 08:08:09;;;;;;;20.67;10.85;;;4.90;79.30;;;;;;5075893;28;20033;-73
2022/01/22 08:10:35;;;;;;;11.80;7.72;;;4.90;79.00;;;;;;5059229;28;20107;-72
2022/01/22 08:13:01;;;;;;;17.25;8.07;;;5.00;79.20;;;;;;5058596;28;20112;-72
2022/01/22 08:15:26;;;;;;;8.70;6.38;;;5.10;79.00;;;;;;5066372;28;20067;-73
2022/01/22 08:17:52;;;;;;;11.10;7.55;;;5.10;78.70;;;;;;5064536;28;20073;-73
2022/01/22 08:20:20;;;;;;;13.63;7.35;;;5.10;78.90;;;;;;5062548;28;20029;-74
2022/01/22 08:22:47;;;;;;;8.55;7.30;;;5.20;78.40;;;;;;5068229;28;20028;-74
2022/01/22 08:25:13;;;;;;;12.27;6.88;;;5.20;78.50;;;;;;5069828;28;20029;-73
2022/01/22 08:28:52;;;;;;;11.65;7.40;;;5.30;78.50;;;;;;5071014;28;20024;-74
2022/01/22 08:30:25;;;;;;;12.95;7.78;;;5.30;78.30;;;;;;5050849;28;20041;-76
2022/01/22 08:35:53;;;;;;;11.55;8.98;;;5.40;77.70;;;;;;5049678;28;20516;-74
2022/01/22 08:38:28;;;;;;;12.43;7.10;;;5.40;78.00;;;;;;5049818;28;20064;-74
2022/01/22 08:40:55;;;;;;;10.85;8.00;;;5.50;77.80;;;;;;5048315;28;20629;-74
2022/01/22 08:43:22;;;;;;;9.27;6.80;;;5.60;77.70;;;;;;5050141;28;20025;-74
2022/01/22 08:45:49;;;;;;;11.48;6.97;;;5.60;77.90;;;;;;5047351;28;20049;-74
2022/01/22 08:48:17;;;;;;;12.55;7.47;;;5.60;77.50;;;;;;5051764;28;20044;-76
2022/01/22 08:50:43;;;;;;;11.95;8.38;;;5.70;77.60;;;;;;5040899;28;20470;-74
2022/01/22 08:53:08;;;;;;;11.82;6.43;;;5.70;77.50;;;;;;5041991;28;20071;-74
2022/01/22 08:55:34;;;;;;;16.90;9.10;;;5.70;77.00;;;;;;5056361;28;20033;-74
2022/01/22 08:58:02;;;;;;;20.55;11.07;;;5.70;77.70;;;;;;5041450;28;20025;-74
2022/01/22 09:00:28;;;;;;;17.63;10.60;;;5.80;77.20;;;;;;5037275;28;20110;-76
2022/01/22 09:02:54;;;;;;;16.83;10.52;;;5.80;77.30;;;;;;5037454;28;20029;-74
2022/01/22 09:05:20;;;;;;;15.40;8.52;;;5.80;77.40;;;;;;5037721;28;20041;-76
2022/01/22 09:07:46;;;;;;;16.20;9.88;;;5.90;77.20;;;;;;5037865;28;20033;-74
2022/01/22 09:10:13;;;;;;;17.10;10.20;;;5.80;77.00;;;;;;5037273;28;20040;-76
2022/01/22 09:12:40;;;;;;;23.40;14.25;;;5.90;77.30;;;;;;5056154;28;20025;-75
2022/01/22 09:15:06;;;;;;;16.83;10.63;;;6.00;77.00;;;;;;5051327;28;20033;-77
2022/01/22 09:17:32;;;;;;;15.38;8.27;;;6.00;77.30;;;;;;5037186;28;20176;-74
2022/01/22 09:19:58;;;;;;;8.75;6.18;;;6.00;77.00;;;;;;5052559;28;20104;-74
2022/01/22 09:22:25;;;;;;;13.95;6.22;;;6.00;76.90;;;;;;5052646;28;20039;-74
2022/01/22 09:24:52;;;;;;;11.93;7.40;;;6.10;76.90;;;;;;5037037;28;20124;-74
2022/01/22 09:27:19;;;;;;;15.23;8.55;;;6.10;76.50;;;;;;5052560;28;20049;-74
2022/01/22 09:29:46;;;;;;;10.23;6.90;;;6.20;76.90;;;;;;5035891;28;20035;-74
2022/01/22 09:32:12;;;;;;;14.40;7.28;;;6.20;76.30;;;;;;5035606;28;20186;-74
2022/01/22 09:34:38;;;;;;;9.25;7.20;;;6.30;76.50;;;;;;5036861;28;20065;-74
2022/01/22 09:37:03;;;;;;;11.98;6.43;;;6.30;76.00;;;;;;5035708;28;20647;-74
2022/01/22 09:39:29;;;;;;;11.70;7.00;;;6.40;76.30;;;;;;5036936;28;20029;-74
2022/01/22 09:41:55;;;;;;;12.25;7.30;;;6.50;75.80;;;;;;5036775;28;20486;-74
2022/01/22 09:44:21;;;;;;;16.42;9.52;;;6.60;76.20;;;;;;5052263;28;20037;-76
2022/01/22 09:46:47;;;;;;;20.45;10.68;;;6.60;75.90;;;;;;5036559;28;20096;-74
2022/01/22 09:49:13;;;;;;;14.05;9.27;;;6.70;75.70;;;;;;5036764;28;20040;-74
2022/01/22 09:51:39;;;;;;;13.30;7.22;;;6.70;75.60;;;;;;5036743;28;20104;-74
2022/01/22 09:54:10;;;;;;;11.10;6.88;;;6.70;75.40;;;;;;5038804;28;20029;-74
2022/01/22 09:56:36;;;;;;;11.38;7.55;;;6.70;75.00;;;;;;5036727;28;20105;-74
2022/01/22 09:59:02;;;;;;;27.08;16.15;;;6.80;75.40;;;;;;5035626;28;20746;-74
2022/01/22 10:01:31;;;;;;;21.20;14.35;;;6.80;75.50;;;;;;5036276;28;20025;-74
2022/01/22 10:04:00;;;;;;;26.35;13.23;;;6.90;75.50;;;;;;5036306;28;20064;-74
2022/01/22 10:06:30;;;;;;;21.15;12.20;;;6.90;75.80;;;;;;5035212;28;20502;-74
2022/01/22 10:09:05;;;;;;;12.23;8.77;;;7.00;75.80;;;;;;5036497;28;20087;-74
2022/01/22 10:11:32;;;;;;;16.75;8.88;;;7.10;75.50;;;;;;5044435;28;20121;-73
2022/01/22 10:13:59;;;;;;;14.85;9.65;;;7.20;75.40;;;;;;5056338;28;20770;-74
2022/01/22 10:16:30;;;;;;;16.63;9.32;;;7.30;74.90;;;;;;5056117;28;20465;-74
2022/01/22 10:19:11;;;;;;;17.88;9.48;;;7.30;75.60;;;;;;5053819;28;20035;-76
2022/01/22 10:21:39;;;;;;;21.33;12.88;;;7.40;74.90;;;;;;5035686;28;20033;-77
2022/01/22 10:27:27;;;;;;;15.10;9.25;;;7.50;74.30;;;;;;5041311;28;20219;-76
2022/01/22 10:29:56;;;;;;;15.73;10.70;;;7.50;73.90;;;;;;5052678;28;20162;-76
2022/01/22 10:32:34;;;;;;;22.20;11.88;;;7.60;74.30;;;;;;5050545;28;20040;-76
2022/01/22 10:35:12;;;;;;;17.48;10.90;;;7.70;74.60;;;;;;5054456;28;20029;-75
2022/01/22 10:37:38;;;;;;;22.40;11.15;;;7.70;73.60;;;;;;5040725;28;20510;-75
2022/01/22 10:40:17;;;;;;;20.73;11.95;;;7.70;74.50;;;;;;5034723;28;20037;-77
2022/01/22 10:42:43;;;;;;;15.82;9.23;;;7.70;73.60;;;;;;5035751;28;20030;-77
2022/01/22 10:45:12;;;;;;;14.43;9.13;;;7.70;73.80;;;;;;5034276;28;20526;-76
2022/01/22 10:47:38;;;;;;;28.63;13.98;;;7.80;73.60;;;;;;5035764;28;20387;-77
2022/01/22 10:50:18;;;;;;;19.02;11.52;;;7.80;73.10;;;;;;5035587;28;20029;-80
2022/01/22 10:53:02;;;;;;;18.33;9.93;;;8.00;73.40;;;;;;5053648;28;20025;-78
2022/01/22 10:55:28;;;;;;;16.95;8.98;;;8.00;73.40;;;;;;5054102;28;20065;-74
2022/01/22 10:58:07;;;;;;;16.23;9.02;;;7.90;73.10;;;;;;5048458;28;20037;-71
2022/01/22 11:00:34;;;;;;;12.73;7.60;;;8.00;72.60;;;;;;5038597;28;20092;-74
2022/01/22 11:03:19;;;;;;;11.98;7.68;;;8.00;72.70;;;;;;5033669;28;20093;-71
2022/01/22 11:05:45;;;;;;;18.90;8.93;;;8.00;72.60;;;;;;5035479;28;20033;-71
2022/01/22 11:08:14;;;;;;;19.42;10.23;;;8.00;73.40;;;;;;5033323;28;20026;-73
2022/01/22 11:10:44;;;;;;;22.52;11.45;;;8.00;73.10;;;;;;5036002;28;20029;-73
2022/01/22 11:13:10;;;;;;;;;;;8.20;72.70;;;;;;5054290;28;20059;-71
2022/01/22 11:15:36;;;;;;;15.45;7.95;;;8.30;72.40;;;;;;5052187;28;19908;-74
2022/01/22 11:18:03;;;;;;;19.90;9.75;;;8.30;71.70;;;;;;5047327;28;20026;-71
2022/01/22 11:20:32;;;;;;;16.02;9.10;;;8.30;71.70;;;;;;5031324;28;20037;-71
2022/01/22 11:22:59;;;;;;;15.57;7.70;;;8.30;72.30;;;;;;5049178;28;20029;-71
2022/01/22 11:25:25;;;;;;;13.50;6.88;;;8.30;71.70;;;;;;5052759;28;20064;-71
2022/01/22 11:27:52;;;;;;;17.52;9.00;;;8.50;71.80;;;;;;5051998;28;20017;-71
2022/01/22 11:30:25;;;;;;;24.88;11.90;;;8.50;71.40;;;;;;5048950;28;20042;-74
2022/01/22 11:32:54;;;;;;;16.23;8.85;;;8.30;71.20;;;;;;5045229;28;20479;-71
2022/01/22 11:35:23;;;;;;;14.68;7.25;;;8.50;71.40;;;;;;5038778;28;20423;-73
2022/01/22 11:37:55;;;;;;;14.15;8.70;;;8.50;70.80;;;;;;5052434;28;20044;-75
2022/01/22 11:40:23;;;;;;;16.38;8.63;;;8.50;70.70;;;;;;5048860;28;20494;-76
2022/01/22 11:43:02;;;;;;;18.77;10.27;;;8.50;69.90;;;;;;5047554;28;20112;-77
2022/01/22 11:45:33;;;;;;;23.80;9.95;;;8.50;70.50;;;;;;5049696;28;20045;-75
2022/01/22 11:48:24;;;;;;;24.77;12.30;;;8.50;70.10;;;;;;5044592;28;20021;-73
2022/01/22 11:50:54;;;;;;;38.88;15.90;;;8.60;70.30;;;;;;5068665;28;20029;-74
2022/01/22 11:53:20;;;;;;;;;;;8.50;69.30;;;;;;5052152;28;20032;-73
2022/01/22 11:56:05;;;;;;;22.25;10.15;;;8.60;70.10;;;;;;5051398;28;20348;-77
2022/01/22 11:58:31;;;;;;;36.65;16.50;;;8.60;69.70;;;;;;5047968;28;20041;-74
2022/01/22 12:00:57;;;;;;;24.38;12.52;;;8.70;69.80;;;;;;5052267;28;20075;-77
2022/01/22 12:03:22;;;;;;;23.73;11.32;;;8.90;70.00;;;;;;5041644;28;20052;-75
2022/01/22 12:05:54;;;;;;;22.83;11.38;;;8.90;70.10;;;;;;5052388;28;20812;-75
2022/01/22 12:08:21;;;;;;;28.63;13.25;;;9.00;70.10;;;;;;5045023;28;20376;-73
2022/01/22 12:16:41;;;;;;;29.50;13.98;;;8.90;68.60;;;;;;5049724;28;20048;-72
2022/01/22 12:22:35;;;;;;;14.23;7.60;;;8.70;69.00;;;;;;5048067;28;20033;-71
2022/01/22 12:25:21;;;;;;;11.55;7.43;;;8.90;70.00;;;;;;5043073;28;20041;-71
2022/01/22 12:27:52;;;;;;;14.15;6.80;;;8.90;69.10;;;;;;5047121;28;20024;-78
2022/01/22 12:30:43;;;;;;;11.98;7.03;;;8.80;69.70;;;;;;5042829;28;20037;-73
2022/01/22 12:33:14;;;;;;;9.60;6.03;;;8.70;69.70;;;;;;5040942;28;20021;-74
2022/01/22 12:35:47;;;;;;;14.85;6.30;;;8.50;69.50;;;;;;5047665;28;20123;-74
2022/01/22 12:44:06;;;;;;;11.68;6.28;;;8.50;70.40;;;;;;5046377;28;20036;-74
2022/01/22 12:46:33;;;;;;;10.70;6.55;;;8.50;70.50;;;;;;5048159;28;20053;-74
2022/01/22 12:49:00;;;;;;;8.80;5.55;;;8.50;70.50;;;;;;5046547;28;20052;-74
2022/01/22 12:51:26;;;;;;;11.77;6.72;;;8.50;70.70;;;;;;5046372;28;20053;-75
2022/01/22 12:53:52;;;;;;;9.30;5.45;;;8.50;71.00;;;;;;5047435;28;20109;-75
2022/01/22 12:57:07;;;;;;;9.35;6.28;;;8.50;70.80;;;;;;5042135;28;20499;-75
2022/01/22 12:59:14;;;;;;;14.05;6.05;;;8.50;71.10;;;;;;5045460;28;20517;-74
2022/01/22 13:01:45;;;;;;;13.20;6.45;;;8.70;70.60;;;;;;5055278;28;20463;-76
2022/01/22 13:04:11;;;;;;;13.65;7.57;;;8.70;70.60;;;;;;5054655;28;20086;-77
2022/01/22 13:06:47;;;;;;;11.38;6.78;;;8.60;70.10;;;;;;5049181;28;20582;-76
2022/01/22 13:09:13;;;;;;;9.15;6.68;;;8.70;70.80;;;;;;5048579;28;20025;-76
2022/01/22 13:11:47;;;;;;;12.75;7.10;;;8.60;71.10;;;;;;5041684;28;20021;-76
2022/01/22 13:14:27;;;;;;;9.68;6.05;;;8.50;70.80;;;;;;5044513;28;20766;-76
2022/01/22 13:16:55;;;;;;;9.40;5.75;;;8.60;70.80;;;;;;5045332;28;20036;-76
2022/01/22 13:19:22;;;;;;;8.93;6.35;;;8.80;70.20;;;;;;5047512;28;20029;-74
2022/01/22 13:22:01;;;;;;;9.82;5.50;;;8.90;70.20;;;;;;5053022;28;20572;-74
2022/01/22 13:24:28;;;;;;;9.15;4.25;;;8.70;69.70;;;;;;5050343;28;20387;-74
2022/01/22 13:27:00;;;;;;;7.80;4.43;;;8.70;69.60;;;;;;5049942;28;20398;-75
2022/01/22 13:29:32;;;;;;;10.07;4.57;;;8.60;69.80;;;;;;5048038;28;20061;-74
2022/01/22 13:32:08;;;;;;;8.63;5.40;;;8.60;69.40;;;;;;5047124;28;20017;-75
2022/01/22 13:34:59;;;;;;;7.85;4.95;;;8.60;69.50;;;;;;5043812;28;20036;-74
2022/01/22 13:48:26;;;;;;;11.35;6.15;;;8.80;69.30;;;;;;5046884;28;20036;-74
2022/01/22 13:50:53;;;;;;;23.77;8.60;;;8.70;69.10;;;;;;5048776;28;20025;-75
2022/01/22 13:53:19;;;;;;;8.43;5.10;;;8.60;69.50;;;;;;5048150;28;20025;-73
2022/01/22 13:56:00;;;;;;;9.30;5.57;;;8.60;70.00;;;;;;5044758;28;20118;-75
2022/01/22 13:58:26;;;;;;;13.45;6.32;;;8.80;69.20;;;;;;5046256;28;20029;-74
2022/01/22 14:00:52;;;;;;;15.00;7.53;;;8.90;68.70;;;;;;5042962;28;20059;-76
2022/01/22 14:04:00;;;;;;;15.35;8.05;;;8.70;69.40;;;;;;5046922;28;20024;-75
2022/01/22 14:06:08;;;;;;;15.40;6.97;;;8.60;69.70;;;;;;5039855;28;20038;-75
2022/01/22 14:08:34;;;;;;;13.02;6.85;;;8.70;69.60;;;;;;5045624;28;20025;-75
2022/01/22 14:11:07;;;;;;;20.95;9.80;;;8.70;69.80;;;;;;5048586;28;20453;-75
2022/01/22 14:13:33;;;;;;;21.73;10.00;;;8.70;69.60;;;;;;5037293;28;20033;-75
2022/01/22 14:16:19;;;;;;;17.00;9.23;;;8.80;69.60;;;;;;5040766;28;20130;-76
2022/01/22 14:18:45;;;;;;;13.18;5.93;;;9.00;69.90;;;;;;5050409;28;20568;-75
2022/01/22 14:21:19;;;;;;;13.07;6.95;;;9.10;69.20;;;;;;5036134;28;20028;-75
2022/01/22 14:23:52;;;;;;;13.70;7.35;;;9.00;68.40;;;;;;5036091;28;20029;-75
2022/01/22 14:26:32;;;;;;;14.95;7.05;;;8.90;68.80;;;;;;5034739;28;20057;-76
2022/01/22 14:29:04;;;;;;;14.73;7.38;;;9.10;68.80;;;;;;5035914;28;20026;-76
2022/01/22 14:31:53;;;;;;;12.32;6.68;;;9.00;68.70;;;;;;5035782;28;20572;-75
2022/01/22 14:34:31;;;;;;;13.50;6.90;;;9.00;69.50;;;;;;5035650;28;20036;-74
2022/01/22 14:36:58;;;;;;;13.32;6.55;;;8.90;69.20;;;;;;5034528;28;20478;-74
2022/01/22 14:44:44;;;;;;;;;;;8.90;69.10;;;;;;5033598;28;20080;-75
2022/01/22 14:47:28;;;;;;;11.50;5.25;;;8.80;68.90;;;;;;5035166;28;19991;-76
2022/01/22 14:50:03;;;;;;;11.40;7.05;;;8.90;68.70;;;;;;5035589;28;20022;-75
2022/01/22 14:52:29;;;;;;;14.70;7.15;;;9.00;68.90;;;;;;5053131;28;20064;-75
2022/01/22 14:55:02;;;;;;;9.93;5.63;;;8.90;69.10;;;;;;5052513;28;20585;-75
2022/01/22 14:57:38;;;;;;;15.05;6.97;;;8.60;69.00;;;;;;5043678;28;20094;-75
2022/01/22 15:00:07;;;;;;;9.80;5.97;;;8.70;69.90;;;;;;5047872;28;20029;-75
2022/01/22 15:02:37;;;;;;;13.07;5.82;;;8.60;69.90;;;;;;5040588;28;20074;-74
2022/01/22 15:05:08;;;;;;;9.63;5.32;;;8.40;70.40;;;;;;5052724;28;20029;-75
2022/01/22 15:07:34;;;;;;;;;;;8.30;70.60;;;;;;5065052;28;20037;-75
2022/01/22 15:09:59;;;;;;;12.70;6.03;;;8.40;70.30;;;;;;5047342;28;19923;-75
2022/01/22 15:12:25;;;;;;;10.65;5.70;;;8.40;70.30;;;;;;5042562;28;20025;-74
2022/01/22 15:14:52;;;;;;;11.95;6.55;;;8.40;70.30;;;;;;5043362;28;20036;-75
2022/01/22 15:19:45;;;;;;;13.15;7.05;;;8.50;70.40;;;;;;5043641;28;20456;-74
2022/01/22 15:22:13;;;;;;;10.30;6.88;;;8.60;70.60;;;;;;5044114;28;20048;-74
2022/01/22 15:24:40;;;;;;;13.23;7.20;;;8.50;70.30;;;;;;5043516;28;20112;-75
2022/01/22 15:27:08;;;;;;;14.50;6.28;;;8.50;70.60;;;;;;5043346;28;20028;-74
2022/01/22 15:29:52;;;;;;;18.00;7.65;;;8.50;70.40;;;;;;5042487;28;20031;-74
2022/01/22 15:32:34;;;;;;;10.85;5.85;;;8.50;70.70;;;;;;5045088;28;20028;-73
2022/01/22 15:35:02;;;;;;;13.63;7.82;;;8.50;70.70;;;;;;5054128;28;20036;-73
2022/01/22 15:37:28;;;;;;;15.32;6.90;;;8.20;71.20;;;;;;5037580;28;20037;-74
2022/01/22 15:39:54;;;;;;;21.77;12.60;;;8.20;71.70;;;;;;5033729;28;20438;-74
2022/01/22 15:42:20;;;;;;;12.85;7.90;;;8.00;72.00;;;;;;5034858;28;20037;-74
2022/01/22 15:44:46;;;;;;;13.95;8.57;;;8.00;72.50;;;;;;5034463;28;20030;-76
2022/01/22 15:47:12;;;;;;;17.52;8.68;;;8.10;72.10;;;;;;5042957;28;20021;-74
2022/01/22 15:49:41;;;;;;;11.35;6.25;;;8.00;72.00;;;;;;5049455;28;20093;-73
2022/01/22 15:52:06;;;;;;;9.82;5.90;;;8.10;71.70;;;;;;5052568;28;20079;-72
2022/01/22 15:54:32;;;;;;;10.25;6.40;;;8.10;72.10;;;;;;5054176;28;20041;-74
2022/01/22 15:56:59;;;;;;;10.77;6.60;;;8.20;72.00;;;;;;5049120;28;20387;-75
2022/01/22 15:59:25;;;;;;;11.48;6.07;;;8.30;71.50;;;;;;5038038;28;20033;-74
2022/01/22 16:01:52;;;;;;;12.43;6.22;;;8.30;71.30;;;;;;5038910;28;20017;-74
2022/01/22 16:04:19;;;;;;;11.63;7.20;;;8.20;71.50;;;;;;5049027;28;20025;-72
2022/01/22 16:06:59;;;;;;;14.52;8.52;;;8.00;72.20;;;;;;5046422;28;20359;-72
2022/01/22 16:09:28;;;;;;;11.57;7.20;;;8.00;72.80;;;;;;5048188;28;20833;-72
2022/01/22 16:11:54;;;;;;;19.80;8.48;;;7.90;72.50;;;;;;5050596;28;20029;-72
2022/01/22 16:14:19;;;;;;;12.75;8.02;;;7.90;72.50;;;;;;5046580;28;20117;-72
2022/01/22 16:16:47;;;;;;;18.08;8.50;;;7.90;72.30;;;;;;5052272;28;20021;-72
2022/01/22 16:19:14;;;;;;;14.57;9.60;;;7.80;73.20;;;;;;5055678;28;20025;-72